Time;durP1;ratioP1;P1;durP2;ratioP2;P2;SDS_P1;SDS_P2;PMS_P1;PMS_P2;Temp;Humidity;BMP_temperature;BMP_pressure;BME280_temperature;BME280_humidity;BME280_pressure;Samples;Min_cycle;Max_cycle;Signal;HPM_P1;HPM_P2
2022/02/23 00:01:14;;;;;;;20.85;4.07;;;6.70;99.90;;;;;;4987320;28;20133;-60
2022/02/23 00:03:41;;;;;;;16.00;3.47;;;6.80;99.90;;;;;;4998587;28;20042;-61
2022/02/23 00:06:08;;;;;;;24.83;3.58;;;6.70;99.90;;;;;;4987596;28;20054;-61
2022/02/23 00:08:35;;;;;;;14.05;3.38;;;6.70;99.90;;;;;;4997683;28;20050;-61
2022/02/23 00:11:02;;;;;;;26.90;4.63;;;6.70;99.90;;;;;;4989470;28;20136;-62
2022/02/23 00:13:28;;;;;;;17.02;3.60;;;6.60;99.90;;;;;;4994262;28;20046;-61
2022/02/23 00:15:55;;;;;;;24.90;4.32;;;6.60;99.90;;;;;;4991678;28;20089;-61
2022/02/23 00:18:22;;;;;;;18.70;3.63;;;6.60;99.90;;;;;;4995087;28;20109;-61
2022/02/23 00:20:49;;;;;;;25.77;4.22;;;6.60;99.90;;;;;;5004396;28;20505;-62
2022/02/23 00:23:18;;;;;;;21.67;3.47;;;6.60;99.90;;;;;;5003515;28;20114;-61
2022/02/23 00:25:45;;;;;;;17.73;3.95;;;6.60;99.90;;;;;;5002450;28;20077;-61
2022/02/23 00:28:11;;;;;;;21.48;4.80;;;6.50;99.90;;;;;;5006354;28;20136;-61
2022/02/23 00:30:38;;;;;;;27.23;4.93;;;6.50;99.90;;;;;;4997703;28;20145;-60
2022/02/23 00:33:05;;;;;;;32.67;5.53;;;6.50;99.90;;;;;;5006624;28;20097;-61
2022/02/23 00:35:32;;;;;;;19.35;4.22;;;6.50;99.90;;;;;;4996892;28;20038;-60
2022/02/23 00:37:59;;;;;;;23.88;5.32;;;6.50;99.90;;;;;;5007040;28;20148;-60
2022/02/23 00:40:26;;;;;;;25.67;3.90;;;6.50;99.90;;;;;;4996598;28;20548;-60
2022/02/23 00:42:53;;;;;;;30.63;5.65;;;6.50;99.90;;;;;;4990694;28;20077;-60
2022/02/23 00:45:20;;;;;;;15.95;3.92;;;6.50;99.90;;;;;;4995541;28;20054;-61
2022/02/23 00:47:49;;;;;;;27.83;4.65;;;6.40;99.90;;;;;;4989093;28;20058;-60
2022/02/23 00:50:15;;;;;;;23.25;4.25;;;6.40;99.90;;;;;;5000364;28;20066;-60
2022/02/23 00:52:42;;;;;;;19.33;4.20;;;6.40;99.90;;;;;;4988215;28;20141;-60
2022/02/23 00:55:09;;;;;;;31.95;5.40;;;6.40;99.90;;;;;;4999162;28;20136;-60
2022/02/23 00:57:36;;;;;;;14.80;4.32;;;6.40;99.90;;;;;;4972599;28;20137;-60
2022/02/23 01:00:04;;;;;;;24.48;3.80;;;6.40;99.90;;;;;;4997157;28;20081;-61
2022/02/23 01:02:31;;;;;;;24.70;5.40;;;6.40;99.90;;;;;;4991732;28;20050;-61
2022/02/23 01:04:58;;;;;;;27.08;5.07;;;6.40;99.90;;;;;;4994786;28;20572;-61
2022/02/23 01:07:25;;;;;;;33.38;5.40;;;6.30;99.90;;;;;;4994051;28;20153;-61
2022/02/23 01:09:51;;;;;;;17.95;3.45;;;6.30;99.90;;;;;;4992313;28;20050;-60
2022/02/23 01:12:18;;;;;;;15.38;3.28;;;6.30;99.90;;;;;;4996778;28;20046;-61
2022/02/23 01:14:45;;;;;;;26.90;4.40;;;6.30;99.90;;;;;;4989830;28;20074;-61
2022/02/23 01:17:12;;;;;;;27.65;4.85;;;6.20;99.90;;;;;;4981298;28;20074;-60
2022/02/23 01:19:38;;;;;;;23.88;4.40;;;6.30;99.90;;;;;;4989489;28;20081;-61
2022/02/23 01:22:06;;;;;;;23.20;4.75;;;6.30;99.90;;;;;;5000197;28;20494;-61
2022/02/23 01:24:33;;;;;;;32.88;7.00;;;6.20;99.90;;;;;;4989556;28;20137;-60
2022/02/23 01:27:00;;;;;;;19.67;4.38;;;6.20;99.90;;;;;;5002931;28;20073;-61
2022/02/23 01:29:27;;;;;;;30.10;4.20;;;6.20;99.90;;;;;;4986134;28;20088;-60
2022/02/23 01:31:54;;;;;;;20.08;3.97;;;6.20;99.90;;;;;;5004110;28;20092;-60
2022/02/23 01:34:21;;;;;;;27.27;4.22;;;6.10;99.90;;;;;;5005531;28;20222;-61
2022/02/23 01:36:47;;;;;;;27.63;4.35;;;6.10;99.90;;;;;;4998039;28;20074;-60
2022/02/23 01:39:14;;;;;;;30.77;4.28;;;6.10;99.90;;;;;;5011392;28;20581;-60
2022/02/23 01:41:41;;;;;;;24.23;4.50;;;6.10;99.90;;;;;;4999842;28;20476;-60
2022/02/23 01:44:08;;;;;;;24.23;4.57;;;6.10;99.90;;;;;;5009731;28;20480;-60
2022/02/23 01:46:34;;;;;;;26.08;3.88;;;6.00;99.90;;;;;;5002000;28;20121;-61
2022/02/23 01:49:01;;;;;;;27.77;5.07;;;6.10;99.90;;;;;;5007284;28;20042;-61
2022/02/23 01:51:30;;;;;;;31.48;4.28;;;6.00;99.90;;;;;;5003817;28;20069;-61
2022/02/23 01:53:56;;;;;;;16.40;4.25;;;6.00;99.90;;;;;;5005223;28;20085;-60
2022/02/23 01:56:23;;;;;;;23.45;4.85;;;6.00;99.90;;;;;;5006702;28;20084;-59
2022/02/23 01:58:50;;;;;;;30.55;5.47;;;6.00;99.90;;;;;;5002568;28;20054;-63
2022/02/23 02:01:17;;;;;;;37.45;4.90;;;6.00;99.90;;;;;;4660184;28;10000461;-61
2022/02/23 02:03:43;;;;;;;18.73;4.15;;;5.90;99.90;;;;;;4997738;28;20538;-60
2022/02/23 02:06:10;;;;;;;29.88;4.50;;;5.90;99.90;;;;;;5008937;28;20042;-60
2022/02/23 02:08:37;;;;;;;26.52;4.57;;;5.90;99.90;;;;;;4999607;28;20089;-60
2022/02/23 02:11:03;;;;;;;29.08;5.47;;;5.90;99.90;;;;;;5009507;28;20532;-60
2022/02/23 02:13:30;;;;;;;24.67;5.65;;;5.90;99.90;;;;;;4998903;28;20128;-60
2022/02/23 02:15:57;;;;;;;20.83;3.60;;;5.90;99.90;;;;;;5010787;28;20082;-61
2022/02/23 02:18:24;;;;;;;20.85;3.63;;;5.80;99.90;;;;;;5003518;28;20080;-62
2022/02/23 02:20:50;;;;;;;21.00;4.43;;;5.90;99.90;;;;;;4999639;28;20133;-61
2022/02/23 02:23:17;;;;;;;20.48;3.72;;;5.80;99.90;;;;;;5005993;28;20301;-60
2022/02/23 02:25:44;;;;;;;13.95;3.42;;;5.80;99.90;;;;;;4990708;28;20097;-62
2022/02/23 02:28:10;;;;;;;32.35;4.30;;;5.80;99.90;;;;;;5000877;28;20088;-61
2022/02/23 02:30:37;;;;;;;26.58;3.63;;;5.80;99.90;;;;;;4992358;28;20088;-61
2022/02/23 02:33:04;;;;;;;24.08;5.53;;;5.80;99.90;;;;;;4998265;28;20133;-61
2022/02/23 02:35:36;;;;;;;28.15;3.65;;;5.80;99.90;;;;;;4994354;28;20050;-61
2022/02/23 02:38:03;;;;;;;24.63;3.72;;;5.80;99.90;;;;;;4979338;28;20046;-61
2022/02/23 02:40:31;;;;;;;22.70;3.60;;;5.80;99.90;;;;;;4995829;28;20157;-60
2022/02/23 02:42:58;;;;;;;18.02;4.10;;;5.70;99.90;;;;;;4994439;28;20569;-60
2022/02/23 02:45:25;;;;;;;21.02;4.32;;;5.70;99.90;;;;;;4998250;28;20129;-60
2022/02/23 02:47:52;;;;;;;22.08;4.32;;;5.70;99.90;;;;;;4975027;28;20046;-61
2022/02/23 02:50:21;;;;;;;21.20;3.55;;;5.70;99.90;;;;;;5004752;28;20045;-61
2022/02/23 02:52:48;;;;;;;19.27;4.57;;;5.70;99.90;;;;;;5006142;28;20386;-60
2022/02/23 02:55:15;;;;;;;22.40;3.40;;;5.70;99.90;;;;;;5001110;28;20082;-60
2022/02/23 02:57:42;;;;;;;19.42;3.60;;;5.70;99.90;;;;;;4991066;28;20085;-61
2022/02/23 03:00:09;;;;;;;19.45;3.47;;;5.70;99.90;;;;;;5001138;28;20094;-60
2022/02/23 03:02:36;;;;;;;19.35;3.50;;;5.60;99.90;;;;;;4989658;28;20046;-60
2022/02/23 03:05:03;;;;;;;24.40;3.55;;;5.60;99.90;;;;;;4984936;28;20114;-60
2022/02/23 03:07:29;;;;;;;21.55;4.90;;;5.60;99.90;;;;;;4989689;28;20090;-60
2022/02/23 03:09:56;;;;;;;27.67;3.85;;;5.60;99.90;;;;;;5001779;28;20077;-62
2022/02/23 03:12:23;;;;;;;23.45;3.47;;;5.60;99.90;;;;;;4990096;28;20056;-60
2022/02/23 03:14:50;;;;;;;14.70;3.42;;;5.60;99.90;;;;;;5000193;28;20088;-60
2022/02/23 03:17:17;;;;;;;29.67;4.25;;;5.60;99.90;;;;;;4991041;28;20085;-60
2022/02/23 03:19:43;;;;;;;22.42;4.82;;;5.60;99.90;;;;;;4997590;28;20493;-60
2022/02/23 03:22:11;;;;;;;20.45;4.28;;;5.60;99.90;;;;;;4992848;28;20078;-60
2022/02/23 03:24:37;;;;;;;21.52;3.72;;;5.60;99.90;;;;;;4995632;28;20524;-60
2022/02/23 03:27:04;;;;;;;29.02;4.25;;;5.60;99.90;;;;;;4995273;28;20085;-59
2022/02/23 03:29:32;;;;;;;23.77;3.47;;;5.60;99.90;;;;;;4993268;28;20153;-60
2022/02/23 03:31:59;;;;;;;27.95;4.78;;;5.50;99.90;;;;;;4980041;28;20046;-60
2022/02/23 03:34:26;;;;;;;21.30;4.97;;;5.50;99.90;;;;;;4991222;28;20528;-59
2022/02/23 03:36:52;;;;;;;28.52;4.78;;;5.50;99.90;;;;;;4999241;28;20440;-61
2022/02/23 03:39:19;;;;;;;21.83;4.13;;;5.40;99.90;;;;;;4990833;28;20128;-61
2022/02/23 03:41:46;;;;;;;21.85;3.35;;;5.50;99.90;;;;;;5000005;28;20101;-60
2022/02/23 03:44:12;;;;;;;22.25;3.72;;;5.40;99.90;;;;;;4990660;28;20096;-61
2022/02/23 03:46:39;;;;;;;22.65;3.92;;;5.40;99.90;;;;;;5000080;28;20050;-59
2022/02/23 03:49:06;;;;;;;23.92;3.25;;;5.40;99.90;;;;;;4989184;28;20548;-59
2022/02/23 03:51:38;;;;;;;16.00;4.38;;;5.40;99.90;;;;;;5003683;28;20057;-60
2022/02/23 03:54:05;;;;;;;26.92;3.53;;;5.20;99.90;;;;;;4989118;28;20145;-59
2022/02/23 03:56:42;;;;;;;20.58;4.20;;;5.40;99.90;;;;;;5000820;28;20081;-60
2022/02/23 03:59:10;;;;;;;21.00;4.47;;;5.40;99.90;;;;;;5004200;28;20049;-60
2022/02/23 04:01:39;;;;;;;23.98;4.03;;;5.30;99.90;;;;;;4995580;28;20125;-60
2022/02/23 04:04:06;;;;;;;21.15;3.72;;;5.30;99.90;;;;;;5023506;28;20136;-60
2022/02/23 04:06:33;;;;;;;17.63;4.20;;;5.30;99.90;;;;;;4991982;28;20054;-60
2022/02/23 04:09:02;;;;;;;18.95;4.70;;;5.20;99.90;;;;;;4990499;28;20086;-60
2022/02/23 04:11:29;;;;;;;23.67;3.97;;;5.20;99.90;;;;;;4998128;28;20084;-60
2022/02/23 04:13:55;;;;;;;30.17;8.57;;;5.20;99.90;;;;;;4992628;28;20161;-60
2022/02/23 04:16:22;;;;;;;19.30;3.85;;;5.20;99.90;;;;;;4994981;28;20056;-60
2022/02/23 04:18:49;;;;;;;15.48;3.55;;;5.30;99.90;;;;;;4994074;28;20050;-60
2022/02/23 04:21:16;;;;;;;19.23;3.10;;;5.20;99.90;;;;;;4999242;28;20135;-60
2022/02/23 04:23:46;;;;;;;23.45;3.78;;;5.30;99.90;;;;;;4995935;28;21244;-60
2022/02/23 04:26:13;;;;;;;24.20;3.55;;;5.20;99.90;;;;;;4991279;28;20133;-60
2022/02/23 04:28:39;;;;;;;21.10;4.03;;;5.20;99.90;;;;;;4998156;28;20513;-60
2022/02/23 04:31:06;;;;;;;15.32;2.95;;;5.10;99.90;;;;;;4988877;28;20073;-60
2022/02/23 04:33:33;;;;;;;23.80;3.83;;;5.10;99.90;;;;;;4999224;28;20133;-61
2022/02/23 04:35:59;;;;;;;18.33;3.85;;;5.10;99.90;;;;;;4989955;28;20046;-60
2022/02/23 04:38:26;;;;;;;24.45;3.90;;;5.10;99.90;;;;;;4999377;28;20074;-60
2022/02/23 04:40:53;;;;;;;20.77;3.33;;;5.00;99.90;;;;;;4988690;28;20141;-61
2022/02/23 04:43:26;;;;;;;18.75;3.50;;;5.10;99.90;;;;;;4996293;28;20057;-60
2022/02/23 04:45:53;;;;;;;20.95;3.42;;;5.00;99.90;;;;;;5008355;28;20057;-60
2022/02/23 04:48:20;;;;;;;17.42;3.55;;;4.90;99.90;;;;;;4995294;28;20101;-60
2022/02/23 04:50:47;;;;;;;24.20;4.38;;;4.70;99.90;;;;;;5007529;28;20536;-60
2022/02/23 04:53:14;;;;;;;12.75;3.75;;;4.90;99.90;;;;;;4995797;28;20502;-60
2022/02/23 04:55:41;;;;;;;19.63;2.65;;;4.80;99.90;;;;;;5007849;28;20137;-60
2022/02/23 04:58:08;;;;;;;23.10;4.38;;;4.70;99.90;;;;;;4998096;28;20237;-60
2022/02/23 05:00:38;;;;;;;20.30;2.60;;;4.80;99.90;;;;;;5007601;28;20137;-61
2022/02/23 05:03:05;;;;;;;19.70;3.15;;;4.70;99.90;;;;;;5004019;28;20042;-60
2022/02/23 05:05:31;;;;;;;37.67;5.05;;;4.60;99.90;;;;;;5007994;28;20509;-59
2022/02/23 05:07:58;;;;;;;22.63;4.38;;;4.60;99.90;;;;;;5006196;28;20538;-60
2022/02/23 05:10:25;;;;;;;18.27;3.50;;;4.60;99.90;;;;;;5005737;28;20057;-60
2022/02/23 05:12:52;;;;;;;20.58;4.55;;;4.60;99.90;;;;;;5008272;28;20100;-60
2022/02/23 05:15:19;;;;;;;24.05;5.57;;;4.50;99.90;;;;;;4985931;28;20081;-59
2022/02/23 05:17:45;;;;;;;21.75;3.13;;;4.50;99.90;;;;;;5010022;28;20042;-59
2022/02/23 05:20:12;;;;;;;11.82;3.20;;;4.40;99.90;;;;;;5011454;28;20132;-60
2022/02/23 05:22:39;;;;;;;14.02;2.90;;;4.40;99.90;;;;;;5009120;28;20056;-60
2022/02/23 05:25:06;;;;;;;15.90;2.97;;;4.50;99.90;;;;;;4985562;28;20093;-60
2022/02/23 05:27:33;;;;;;;18.77;2.83;;;4.50;99.90;;;;;;4974668;28;20050;-60
2022/02/23 05:30:00;;;;;;;16.02;2.67;;;4.50;99.90;;;;;;5003574;28;20077;-60
2022/02/23 05:32:26;;;;;;;19.33;2.70;;;4.60;99.90;;;;;;4991665;28;20153;-60
2022/02/23 05:34:53;;;;;;;10.75;2.88;;;4.60;99.90;;;;;;5003438;28;20141;-60
2022/02/23 05:37:20;;;;;;;21.85;2.90;;;4.70;99.90;;;;;;4974388;28;20141;-60
2022/02/23 05:39:46;;;;;;;23.17;3.10;;;4.70;99.90;;;;;;5002900;28;20222;-60
2022/02/23 05:42:13;;;;;;;15.13;2.50;;;4.70;99.90;;;;;;4991732;28;20073;-60
2022/02/23 05:44:40;;;;;;;17.23;3.20;;;4.70;99.90;;;;;;5000690;28;20084;-60
2022/02/23 05:47:09;;;;;;;19.27;3.85;;;4.70;99.90;;;;;;4993510;28;20078;-60
2022/02/23 05:49:36;;;;;;;16.80;2.70;;;4.70;99.90;;;;;;4998268;28;20096;-61
2022/02/23 05:52:04;;;;;;;16.00;3.40;;;4.70;99.90;;;;;;4995670;28;20073;-60
2022/02/23 05:54:31;;;;;;;13.75;2.88;;;4.70;99.90;;;;;;4988746;28;20129;-60
2022/02/23 05:56:59;;;;;;;22.15;2.42;;;4.60;99.90;;;;;;4997684;28;20074;-61
2022/02/23 05:59:26;;;;;;;11.50;2.85;;;4.60;99.90;;;;;;4994312;28;20516;-61
2022/02/23 06:01:52;;;;;;;21.70;3.75;;;4.50;99.90;;;;;;4992966;28;20084;-60
2022/02/23 06:04:19;;;;;;;26.17;3.65;;;4.40;99.90;;;;;;5008861;28;20069;-60
2022/02/23 06:06:46;;;;;;;22.05;3.17;;;4.40;99.90;;;;;;5001386;28;20732;-60
2022/02/23 06:09:14;;;;;;;13.30;2.63;;;4.30;99.90;;;;;;4992163;28;20132;-60
2022/02/23 06:11:43;;;;;;;19.75;2.92;;;4.30;99.90;;;;;;5001386;28;20589;-61
2022/02/23 06:14:10;;;;;;;19.48;3.15;;;4.20;99.90;;;;;;4991458;28;20050;-61
2022/02/23 06:16:37;;;;;;;18.63;3.28;;;4.20;99.90;;;;;;4984409;28;20390;-61
2022/02/23 06:19:04;;;;;;;20.33;4.03;;;4.20;99.90;;;;;;4992052;28;20133;-60
2022/02/23 06:21:30;;;;;;;16.58;2.63;;;4.20;99.90;;;;;;5002829;28;20046;-61
2022/02/23 06:23:57;;;;;;;21.50;3.40;;;4.10;99.90;;;;;;4990840;28;20081;-60
2022/02/23 06:26:24;;;;;;;20.02;3.42;;;4.10;99.90;;;;;;5002756;28;20132;-60
2022/02/23 06:28:51;;;;;;;19.63;5.05;;;4.10;99.90;;;;;;4990232;28;20057;-60
2022/02/23 06:31:17;;;;;;;14.00;3.20;;;4.00;99.90;;;;;;5000476;28;20528;-60
2022/02/23 06:33:45;;;;;;;17.67;3.20;;;4.00;99.90;;;;;;4991871;28;20039;-61
2022/02/23 06:36:13;;;;;;;18.50;5.00;;;4.10;99.90;;;;;;4996412;28;20049;-61
2022/02/23 06:38:41;;;;;;;28.90;4.20;;;4.00;99.90;;;;;;5002690;28;20077;-61
2022/02/23 06:41:09;;;;;;;18.30;2.88;;;4.00;99.90;;;;;;5000482;28;20129;-61
2022/02/23 06:43:36;;;;;;;20.33;3.17;;;4.00;99.90;;;;;;5004920;28;20054;-60
2022/02/23 06:46:03;;;;;;;21.73;3.83;;;4.00;99.90;;;;;;4997782;28;20078;-60
2022/02/23 06:48:31;;;;;;;15.48;3.13;;;4.00;99.90;;;;;;5001747;28;20123;-62
2022/02/23 06:50:58;;;;;;;12.88;3.20;;;4.10;99.90;;;;;;5004420;28;20133;-61
2022/02/23 06:53:27;;;;;;;23.45;4.15;;;4.10;99.90;;;;;;4992191;28;20056;-61
2022/02/23 06:55:54;;;;;;;20.50;4.18;;;4.10;99.90;;;;;;4990410;28;20046;-61
2022/02/23 06:58:21;;;;;;;13.75;4.07;;;4.30;99.90;;;;;;4998559;28;20065;-60
2022/02/23 07:00:47;;;;;;;14.75;4.45;;;4.30;99.90;;;;;;5007515;28;20184;-61
2022/02/23 07:03:14;;;;;;;29.75;3.63;;;4.40;99.90;;;;;;4997901;28;20065;-60
2022/02/23 07:05:41;;;;;;;19.40;3.67;;;4.40;99.90;;;;;;5008713;28;20108;-61
2022/02/23 07:08:08;;;;;;;12.25;3.03;;;4.50;99.90;;;;;;5000631;28;20141;-61
2022/02/23 07:10:35;;;;;;;20.83;4.18;;;4.60;99.90;;;;;;4998929;28;20148;-61
2022/02/23 07:13:07;;;;;;;17.05;3.58;;;4.60;99.90;;;;;;5001030;28;20137;-61
2022/02/23 07:15:34;;;;;;;17.85;4.13;;;4.60;99.90;;;;;;4988538;28;20146;-61
2022/02/23 07:18:01;;;;;;;19.95;3.22;;;4.60;99.90;;;;;;4983822;28;20076;-61
2022/02/23 07:20:28;;;;;;;20.77;3.33;;;4.70;99.90;;;;;;5001141;28;20081;-60
2022/02/23 07:22:55;;;;;;;15.45;3.88;;;4.80;99.90;;;;;;5000217;28;20038;-61
2022/02/23 07:25:22;;;;;;;20.58;3.38;;;4.80;99.90;;;;;;4974807;28;20097;-61
2022/02/23 07:27:48;;;;;;;23.23;3.10;;;4.90;99.90;;;;;;4996080;28;20077;-61
2022/02/23 07:30:18;;;;;;;31.27;5.13;;;4.90;99.90;;;;;;4993618;28;20053;-62
2022/02/23 07:32:48;;;;;;;20.90;3.78;;;5.00;99.90;;;;;;4994018;28;20412;-62
2022/02/23 07:35:14;;;;;;;24.50;4.13;;;5.00;99.90;;;;;;4995755;28;20081;-62
2022/02/23 07:37:42;;;;;;;20.65;3.72;;;5.10;99.90;;;;;;5000825;28;20074;-62
2022/02/23 07:40:20;;;;;;;21.15;4.18;;;5.20;99.90;;;;;;4997939;28;20100;-62
2022/02/23 07:43:08;;;;;;;17.13;3.30;;;5.20;99.90;;;;;;5000454;28;20046;-62
2022/02/23 07:45:40;;;;;;;19.65;3.65;;;5.30;99.90;;;;;;4980263;28;20054;-61
2022/02/23 07:48:08;;;;;;;28.10;4.55;;;5.30;99.90;;;;;;5000403;28;21059;-61
2022/02/23 07:50:35;;;;;;;11.07;2.63;;;5.30;99.90;;;;;;4981541;28;20086;-61
2022/02/23 07:53:02;;;;;;;17.50;3.00;;;5.30;99.90;;;;;;4997546;28;20527;-61
2022/02/23 07:55:29;;;;;;;19.52;3.78;;;5.40;99.90;;;;;;4997535;28;20074;-61
2022/02/23 07:57:58;;;;;;;23.90;3.17;;;5.50;99.90;;;;;;4980077;28;20042;-61
2022/02/23 08:00:25;;;;;;;21.63;3.47;;;5.50;99.90;;;;;;4997375;28;20433;-62
2022/02/23 08:02:51;;;;;;;15.20;3.35;;;5.50;99.90;;;;;;4979424;28;20735;-62
2022/02/23 08:05:18;;;;;;;22.20;3.92;;;5.50;99.90;;;;;;5000312;28;20079;-62
2022/02/23 08:07:46;;;;;;;21.48;4.82;;;5.50;99.90;;;;;;4996490;28;20058;-60
2022/02/23 08:10:13;;;;;;;17.55;2.70;;;5.60;99.90;;;;;;4998674;28;20458;-61
2022/02/23 08:12:40;;;;;;;22.50;3.70;;;5.60;99.90;;;;;;4997665;28;20072;-60
2022/02/23 08:20:39;;;;;;;13.93;2.80;;;5.80;99.90;;;;;;4999390;28;20081;-61
2022/02/23 08:23:06;;;;;;;22.13;3.33;;;6.00;99.90;;;;;;5007058;28;20053;-60
2022/02/23 08:25:33;;;;;;;16.88;3.30;;;6.00;99.90;;;;;;4994084;28;20135;-61
2022/02/23 08:28:00;;;;;;;26.58;6.45;;;6.10;99.90;;;;;;5000682;28;20120;-61
2022/02/23 08:30:27;;;;;;;21.67;4.28;;;6.00;99.90;;;;;;4999836;28;20046;-61
2022/02/23 08:32:55;;;;;;;25.10;3.45;;;6.20;99.90;;;;;;5003172;28;20092;-62
2022/02/23 08:35:42;;;;;;;13.88;3.20;;;6.20;99.90;;;;;;5001038;28;20053;-62
2022/02/23 08:38:11;;;;;;;23.90;3.30;;;6.20;99.90;;;;;;4999298;28;20512;-61
2022/02/23 08:40:40;;;;;;;28.98;5.90;;;6.40;99.90;;;;;;4996775;28;20054;-61
2022/02/23 08:43:07;;;;;;;23.85;5.07;;;6.30;99.90;;;;;;4991722;28;20139;-62
2022/02/23 08:45:34;;;;;;;22.60;4.50;;;6.30;99.90;;;;;;5001232;28;20129;-62
2022/02/23 08:48:06;;;;;;;29.05;4.55;;;6.30;99.90;;;;;;5007096;28;20050;-61
2022/02/23 08:50:34;;;;;;;45.63;7.13;;;6.30;99.90;;;;;;5003191;28;20046;-61
2022/02/23 08:53:00;;;;;;;26.77;5.35;;;6.40;99.90;;;;;;5002665;28;20053;-61
2022/02/23 08:55:27;;;;;;;36.50;5.05;;;6.40;99.90;;;;;;4986759;28;20104;-62
2022/02/23 08:57:55;;;;;;;29.58;6.03;;;6.50;99.90;;;;;;4997437;28;20054;-61
2022/02/23 09:00:22;;;;;;;24.60;4.93;;;6.60;99.90;;;;;;5002482;28;20046;-64
2022/02/23 09:02:49;;;;;;;21.30;4.60;;;6.70;99.90;;;;;;5009677;28;20089;-63
2022/02/23 09:05:16;;;;;;;32.63;5.10;;;6.90;99.90;;;;;;5006188;28;20502;-62
2022/02/23 09:07:43;;;;;;;28.50;5.90;;;7.00;99.90;;;;;;4966468;28;1226312;-62
2022/02/23 09:10:09;;;;;;;30.00;4.57;;;7.20;99.90;;;;;;5009423;28;20185;-62
2022/02/23 09:12:36;;;;;;;23.33;4.35;;;7.40;99.90;;;;;;5002575;28;20088;-61
2022/02/23 09:15:04;;;;;;;20.95;4.30;;;7.60;99.90;;;;;;5007394;28;20543;-60
2022/02/23 09:17:31;;;;;;;75.13;9.90;;;7.70;99.90;;;;;;4986239;28;20050;-61
2022/02/23 09:19:58;;;;;;;28.75;4.60;;;8.00;99.90;;;;;;5003494;28;20053;-62
2022/02/23 09:22:25;;;;;;;24.67;5.72;;;8.10;99.90;;;;;;4998249;28;20092;-60
2022/02/23 09:24:53;;;;;;;39.28;7.47;;;8.30;99.90;;;;;;5011155;28;20088;-62
2022/02/23 09:27:20;;;;;;;26.58;5.15;;;8.50;99.90;;;;;;4998908;28;20137;-62
2022/02/23 09:29:46;;;;;;;19.38;4.60;;;8.70;99.90;;;;;;5010313;28;20053;-62
2022/02/23 09:32:15;;;;;;;23.52;4.13;;;8.70;99.90;;;;;;5001434;28;20073;-60
2022/02/23 09:34:43;;;;;;;22.70;6.13;;;8.70;99.90;;;;;;5008294;28;20133;-61
2022/02/23 09:37:09;;;;;;;32.88;4.95;;;8.60;99.90;;;;;;5003483;28;20504;-61
2022/02/23 09:39:36;;;;;;;22.77;4.95;;;8.20;99.90;;;;;;5006150;28;20074;-61
2022/02/23 09:42:03;;;;;;;34.80;4.65;;;8.10;99.90;;;;;;5005487;28;20132;-61
2022/02/23 09:44:31;;;;;;;29.30;5.85;;;8.00;99.90;;;;;;5003902;28;20137;-61
2022/02/23 09:47:00;;;;;;;17.25;4.05;;;7.90;99.90;;;;;;5004830;28;20050;-61
2022/02/23 09:49:29;;;;;;;22.05;5.97;;;8.00;99.90;;;;;;5000120;28;20469;-61
2022/02/23 09:51:57;;;;;;;25.65;5.65;;;7.90;99.90;;;;;;5002591;28;20509;-61
2022/02/23 09:54:24;;;;;;;19.50;6.13;;;7.90;99.90;;;;;;4981915;28;20081;-62
2022/02/23 09:56:50;;;;;;;25.25;6.25;;;7.90;99.90;;;;;;4991712;28;20690;-62
2022/02/23 09:59:17;;;;;;;25.00;4.78;;;7.80;99.90;;;;;;5001322;28;20042;-63
2022/02/23 10:01:45;;;;;;;26.60;5.70;;;7.80;99.90;;;;;;4991266;28;20050;-61
2022/02/23 10:04:13;;;;;;;23.55;4.60;;;7.70;99.90;;;;;;5002211;28;20112;-63
2022/02/23 10:06:41;;;;;;;33.75;5.65;;;7.80;99.90;;;;;;4975755;28;20058;-63
2022/02/23 10:09:11;;;;;;;27.13;6.05;;;7.90;99.90;;;;;;5003252;28;20068;-60
2022/02/23 10:11:40;;;;;;;24.15;4.97;;;7.80;99.90;;;;;;4990569;28;20058;-61
2022/02/23 10:14:08;;;;;;;32.45;7.80;;;7.90;99.90;;;;;;5001722;28;20585;-61
2022/02/23 10:16:38;;;;;;;29.20;7.60;;;8.00;99.90;;;;;;4994094;28;20050;-61
2022/02/23 10:19:19;;;;;;;32.30;5.05;;;8.10;99.90;;;;;;4998287;28;20589;-63
2022/02/23 10:21:49;;;;;;;21.75;4.38;;;8.10;99.90;;;;;;5010010;28;20101;-62
2022/02/23 10:24:23;;;;;;;24.70;6.25;;;8.10;99.90;;;;;;5005386;28;20141;-62
2022/02/23 10:26:54;;;;;;;27.42;5.05;;;8.20;99.90;;;;;;4994338;28;20090;-62
2022/02/23 10:29:32;;;;;;;36.63;5.38;;;8.30;99.90;;;;;;5001807;28;20124;-63
2022/02/23 10:32:00;;;;;;;29.52;5.18;;;8.40;99.90;;;;;;4990601;28;20882;-61
2022/02/23 10:34:27;;;;;;;28.38;5.10;;;8.30;99.90;;;;;;5001037;28;20493;-61
2022/02/23 10:37:02;;;;;;;28.13;4.85;;;8.50;99.90;;;;;;4991462;28;20149;-61
2022/02/23 10:39:43;;;;;;;30.27;4.50;;;8.60;99.90;;;;;;5000588;28;20052;-61
2022/02/23 10:42:12;;;;;;;28.13;5.32;;;8.70;99.90;;;;;;5009385;28;20053;-61
2022/02/23 10:44:42;;;;;;;27.77;5.22;;;8.80;99.90;;;;;;5006810;28;20148;-61
2022/02/23 10:47:12;;;;;;;27.65;5.30;;;8.90;99.90;;;;;;5010714;28;20057;-61
2022/02/23 10:49:39;;;;;;;22.17;5.22;;;9.00;99.90;;;;;;5003681;28;20121;-62
2022/02/23 10:52:06;;;;;;;23.98;4.18;;;9.10;99.90;;;;;;5004707;28;20053;-62
2022/02/23 10:54:35;;;;;;;23.00;4.53;;;9.00;99.90;;;;;;5010863;28;20050;-62
2022/02/23 10:57:17;;;;;;;21.42;5.00;;;9.10;99.90;;;;;;4995413;28;20098;-62
2022/02/23 10:59:48;;;;;;;26.38;4.47;;;9.00;99.90;;;;;;4996185;28;20141;-62
2022/02/23 11:02:15;;;;;;;13.18;4.00;;;9.10;99.90;;;;;;4994478;28;20082;-63
2022/02/23 11:04:42;;;;;;;24.40;3.72;;;9.20;99.90;;;;;;4993803;28;20137;-62
2022/02/23 11:07:09;;;;;;;29.52;6.35;;;9.30;99.90;;;;;;4996417;28;20086;-62
2022/02/23 11:09:36;;;;;;;14.15;2.60;;;9.40;99.90;;;;;;4991609;28;20134;-62
2022/02/23 11:12:03;;;;;;;13.75;2.53;;;9.30;99.90;;;;;;4999857;28;20133;-63
2022/02/23 11:14:30;;;;;;;21.50;3.33;;;9.50;99.90;;;;;;4989450;28;20099;-65
2022/02/23 11:16:59;;;;;;;13.35;2.58;;;9.50;99.90;;;;;;5001512;28;20138;-61
2022/02/23 11:19:26;;;;;;;12.05;3.33;;;9.70;99.90;;;;;;5005979;28;20093;-62
2022/02/23 11:21:52;;;;;;;10.30;2.88;;;9.70;99.90;;;;;;4995140;28;20045;-63
2022/02/23 11:24:20;;;;;;;14.13;2.42;;;9.80;98.10;;;;;;5006274;28;20129;-63
2022/02/23 11:26:47;;;;;;;12.18;2.40;;;9.90;98.90;;;;;;4994675;28;20038;-62
2022/02/23 11:29:21;;;;;;;12.55;2.65;;;9.80;98.60;;;;;;5006373;28;20129;-62
2022/02/23 11:31:52;;;;;;;10.88;2.42;;;9.80;99.10;;;;;;4999543;28;20481;-62
2022/02/23 11:34:21;;;;;;;11.07;2.60;;;9.80;99.70;;;;;;4988786;28;20042;-62
2022/02/23 11:36:49;;;;;;;15.60;2.47;;;9.80;98.60;;;;;;5000603;28;20045;-62
2022/02/23 11:39:18;;;;;;;11.50;2.05;;;9.80;99.90;;;;;;4987689;28;20058;-62
2022/02/23 11:41:47;;;;;;;15.70;4.00;;;9.90;99.30;;;;;;4998172;28;20112;-61
2022/02/23 11:44:15;;;;;;;15.10;2.88;;;9.90;99.90;;;;;;4988334;28;20077;-62
2022/02/23 11:47:11;;;;;;;11.38;2.30;;;9.90;99.10;;;;;;4991197;28;20167;-62
2022/02/23 11:49:54;;;;;;;19.20;3.28;;;9.90;98.80;;;;;;4988067;28;20054;-62
2022/02/23 11:52:27;;;;;;;15.65;3.35;;;10.00;99.60;;;;;;5000958;28;20046;-62
2022/02/23 11:54:55;;;;;;;7.73;2.30;;;10.10;99.50;;;;;;4988827;28;20137;-62
2022/02/23 11:57:48;;;;;;;17.48;3.28;;;10.20;98.90;;;;;;5000900;28;20081;-62
2022/02/23 12:00:26;;;;;;;15.63;3.20;;;10.20;97.60;;;;;;4989264;28;20050;-62
2022/02/23 12:03:11;;;;;;;18.83;3.08;;;10.20;97.60;;;;;;4999905;28;20046;-62
2022/02/23 12:05:41;;;;;;;15.63;3.50;;;10.20;97.00;;;;;;4988936;28;20056;-62
2022/02/23 12:08:32;;;;;;;23.65;4.30;;;10.20;96.70;;;;;;4995597;28;20054;-62
2022/02/23 12:11:18;;;;;;;20.55;3.63;;;10.30;97.40;;;;;;5007583;28;20088;-63
2022/02/23 12:13:46;;;;;;;23.35;4.05;;;10.30;97.00;;;;;;4986115;28;20117;-62
2022/02/23 12:16:27;;;;;;;18.65;2.58;;;10.40;97.70;;;;;;4994287;28;20046;-63
2022/02/23 12:18:58;;;;;;;19.83;3.85;;;10.40;96.90;;;;;;4999340;28;20046;-63
2022/02/23 12:21:42;;;;;;;13.52;2.80;;;10.30;97.10;;;;;;4989422;28;20145;-63
2022/02/23 12:24:17;;;;;;;20.30;4.28;;;10.30;96.40;;;;;;4999809;28;20132;-62
2022/02/23 12:26:44;;;;;;;10.40;2.45;;;10.30;96.70;;;;;;5004348;28;20062;-62
2022/02/23 12:29:12;;;;;;;10.20;2.38;;;10.40;98.10;;;;;;4999099;28;20078;-62
2022/02/23 12:31:39;;;;;;;14.23;2.47;;;10.40;97.60;;;;;;5025793;28;20050;-62
2022/02/23 12:34:12;;;;;;;13.48;2.75;;;10.40;96.60;;;;;;4979963;28;20049;-62
2022/02/23 12:37:01;;;;;;;14.75;2.15;;;10.30;96.30;;;;;;4991871;28;20140;-63
2022/02/23 12:39:33;;;;;;;8.23;2.53;;;10.40;97.40;;;;;;4985130;28;20133;-63
2022/02/23 12:42:05;;;;;;;13.60;3.65;;;10.40;97.60;;;;;;4994050;28;20501;-63
2022/02/23 12:44:34;;;;;;;13.45;3.38;;;10.40;97.30;;;;;;4994341;28;20130;-63
2022/02/23 12:47:06;;;;;;;16.75;2.45;;;10.40;97.10;;;;;;4996762;28;20050;-63
2022/02/23 12:49:33;;;;;;;12.95;3.10;;;10.50;96.90;;;;;;4999880;28;20560;-63
2022/02/23 12:52:01;;;;;;;11.25;3.05;;;10.50;97.40;;;;;;4987957;28;20050;-63
2022/02/23 12:54:28;;;;;;;15.90;2.80;;;10.60;97.10;;;;;;4653722;28;10000276;-61
2022/02/23 12:56:56;;;;;;;16.63;2.88;;;10.60;96.20;;;;;;4985790;28;20515;-63